sensor_id;sensor_type;location;lat;lon;timestamp;P1;durP1;ratioP1;P2;durP2;ratioP2
71202;SDS011;58929;47.490;19.090;2023-02-01T00:01:18;7.07;;;3.38;;
71202;SDS011;58929;47.490;19.090;2023-02-01T00:03:46;7.47;;;2.75;;
71202;SDS011;58929;47.490;19.090;2023-02-01T00:06:14;6.97;;;2.63;;
71202;SDS011;58929;47.490;19.090;2023-02-01T00:08:44;6.72;;;2.78;;
71202;SDS011;58929;47.490;19.090;2023-02-01T00:11:13;10.45;;;3.28;;
71202;SDS011;58929;47.490;19.090;2023-02-01T00:13:41;7.53;;;3.17;;
71202;SDS011;58929;47.490;19.090;2023-02-01T00:16:10;8.55;;;3.10;;
71202;SDS011;58929;47.490;19.090;2023-02-01T00:18:38;9.70;;;3.13;;
71202;SDS011;58929;47.490;19.090;2023-02-01T00:21:07;12.95;;;3.50;;
71202;SDS011;58929;47.490;19.090;2023-02-01T00:23:35;6.80;;;3.25;;
71202;SDS011;58929;47.490;19.090;2023-02-01T00:26:04;8.80;;;3.53;;
71202;SDS011;58929;47.490;19.090;2023-02-01T00:28:33;9.38;;;3.30;;
71202;SDS011;58929;47.490;19.090;2023-02-01T00:31:03;11.38;;;4.05;;
71202;SDS011;58929;47.490;19.090;2023-02-01T00:33:32;14.20;;;4.88;;
71202;SDS011;58929;47.490;19.090;2023-02-01T00:36:01;8.32;;;4.03;;
71202;SDS011;58929;47.490;19.090;2023-02-01T00:38:29;9.80;;;4.05;;
71202;SDS011;58929;47.490;19.090;2023-02-01T00:41:01;12.57;;;4.63;;
71202;SDS011;58929;47.490;19.090;2023-02-01T00:43:30;10.68;;;4.63;;
71202;SDS011;58929;47.490;19.090;2023-02-01T00:46:00;9.70;;;3.85;;
71202;SDS011;58929;47.490;19.090;2023-02-01T00:48:29;9.05;;;3.45;;
71202;SDS011;58929;47.490;19.090;2023-02-01T00:50:58;9.05;;;4.20;;
71202;SDS011;58929;47.490;19.090;2023-02-01T00:53:26;15.38;;;4.07;;
71202;SDS011;58929;47.490;19.090;2023-02-01T00:55:54;9.88;;;4.05;;
71202;SDS011;58929;47.490;19.090;2023-02-01T00:58:23;9.50;;;4.03;;
71202;SDS011;58929;47.490;19.090;2023-02-01T01:01:01;8.73;;;3.40;;
71202;SDS011;58929;47.490;19.090;2023-02-01T01:03:30;10.40;;;4.15;;
71202;SDS011;58929;47.490;19.090;2023-02-01T01:06:00;7.07;;;3.15;;
71202;SDS011;58929;47.490;19.090;2023-02-01T01:08:28;6.13;;;3.33;;
71202;SDS011;58929;47.490;19.090;2023-02-01T01:10:56;9.15;;;3.55;;
71202;SDS011;58929;47.490;19.090;2023-02-01T01:13:24;8.23;;;3.03;;
71202;SDS011;58929;47.490;19.090;2023-02-01T01:15:52;8.07;;;3.35;;
71202;SDS011;58929;47.490;19.090;2023-02-01T01:18:22;11.10;;;3.80;;
71202;SDS011;58929;47.490;19.090;2023-02-01T01:20:50;6.05;;;3.05;;
71202;SDS011;58929;47.490;19.090;2023-02-01T01:23:18;9.25;;;3.80;;
71202;SDS011;58929;47.490;19.090;2023-02-01T01:25:46;7.55;;;3.45;;
71202;SDS011;58929;47.490;19.090;2023-02-01T01:28:14;7.35;;;3.30;;
71202;SDS011;58929;47.490;19.090;2023-02-01T01:30:42;9.43;;;3.35;;
71202;SDS011;58929;47.490;19.090;2023-02-01T01:33:10;10.90;;;3.83;;
71202;SDS011;58929;47.490;19.090;2023-02-01T01:35:39;5.95;;;3.08;;
71202;SDS011;58929;47.490;19.090;2023-02-01T01:38:08;5.05;;;3.13;;
71202;SDS011;58929;47.490;19.090;2023-02-01T01:40:37;9.02;;;3.38;;
71202;SDS011;58929;47.490;19.090;2023-02-01T01:43:10;10.45;;;4.10;;
71202;SDS011;58929;47.490;19.090;2023-02-01T01:45:40;12.13;;;3.80;;
71202;SDS011;58929;47.490;19.090;2023-02-01T01:48:09;5.57;;;3.38;;
71202;SDS011;58929;47.490;19.090;2023-02-01T01:50:40;7.45;;;4.10;;
71202;SDS011;58929;47.490;19.090;2023-02-01T01:53:11;4.13;;;2.88;;
71202;SDS011;58929;47.490;19.090;2023-02-01T01:55:42;7.88;;;3.67;;
71202;SDS011;58929;47.490;19.090;2023-02-01T01:58:12;7.10;;;3.08;;
71202;SDS011;58929;47.490;19.090;2023-02-01T02:00:40;4.35;;;3.13;;
71202;SDS011;58929;47.490;19.090;2023-02-01T02:03:11;10.65;;;3.63;;
71202;SDS011;58929;47.490;19.090;2023-02-01T02:05:43;4.75;;;3.00;;
71202;SDS011;58929;47.490;19.090;2023-02-01T02:08:12;5.80;;;3.10;;
71202;SDS011;58929;47.490;19.090;2023-02-01T02:10:40;11.25;;;3.58;;
71202;SDS011;58929;47.490;19.090;2023-02-01T02:13:25;11.30;;;3.92;;
71202;SDS011;58929;47.490;19.090;2023-02-01T02:15:58;9.15;;;3.42;;
71202;SDS011;58929;47.490;19.090;2023-02-01T02:18:31;6.40;;;3.15;;
71202;SDS011;58929;47.490;19.090;2023-02-01T02:21:10;8.27;;;3.10;;
71202;SDS011;58929;47.490;19.090;2023-02-01T02:26:39;5.50;;;3.45;;
71202;SDS011;58929;47.490;19.090;2023-02-01T02:29:35;6.25;;;3.20;;
71202;SDS011;58929;47.490;19.090;2023-02-01T02:32:20;5.20;;;3.53;;
71202;SDS011;58929;47.490;19.090;2023-02-01T02:34:52;6.13;;;3.55;;
71202;SDS011;58929;47.490;19.090;2023-02-01T02:37:24;8.25;;;4.07;;
71202;SDS011;58929;47.490;19.090;2023-02-01T02:39:56;5.55;;;3.20;;
71202;SDS011;58929;47.490;19.090;2023-02-01T02:42:27;5.85;;;2.92;;
71202;SDS011;58929;47.490;19.090;2023-02-01T02:45:16;5.18;;;2.97;;
71202;SDS011;58929;47.490;19.090;2023-02-01T02:48:04;6.22;;;3.88;;
71202;SDS011;58929;47.490;19.090;2023-02-01T02:50:40;3.22;;;2.92;;
71202;SDS011;58929;47.490;19.090;2023-02-01T02:53:30;4.93;;;2.55;;
71202;SDS011;58929;47.490;19.090;2023-02-01T02:56:17;4.80;;;3.13;;
71202;SDS011;58929;47.490;19.090;2023-02-01T02:59:04;3.92;;;3.08;;
71202;SDS011;58929;47.490;19.090;2023-02-01T03:01:50;3.92;;;2.75;;
71202;SDS011;58929;47.490;19.090;2023-02-01T03:04:36;3.60;;;2.72;;
71202;SDS011;58929;47.490;19.090;2023-02-01T03:07:13;6.35;;;2.53;;
71202;SDS011;58929;47.490;19.090;2023-02-01T03:09:44;3.50;;;2.08;;
71202;SDS011;58929;47.490;19.090;2023-02-01T03:12:12;4.43;;;2.85;;
71202;SDS011;58929;47.490;19.090;2023-02-01T03:15:00;3.38;;;2.42;;
71202;SDS011;58929;47.490;19.090;2023-02-01T03:17:32;3.15;;;2.63;;
71202;SDS011;58929;47.490;19.090;2023-02-01T03:20:02;3.35;;;2.55;;
71202;SDS011;58929;47.490;19.090;2023-02-01T03:22:33;4.07;;;2.42;;
71202;SDS011;58929;47.490;19.090;2023-02-01T03:25:02;4.18;;;2.53;;
71202;SDS011;58929;47.490;19.090;2023-02-01T03:27:34;3.47;;;2.50;;
71202;SDS011;58929;47.490;19.090;2023-02-01T03:30:03;2.50;;;2.00;;
71202;SDS011;58929;47.490;19.090;2023-02-01T03:32:34;2.30;;;2.10;;
71202;SDS011;58929;47.490;19.090;2023-02-01T03:35:23;3.45;;;2.13;;
71202;SDS011;58929;47.490;19.090;2023-02-01T03:37:55;4.45;;;2.08;;
71202;SDS011;58929;47.490;19.090;2023-02-01T03:40:24;3.20;;;2.35;;
71202;SDS011;58929;47.490;19.090;2023-02-01T03:42:54;3.15;;;1.95;;
71202;SDS011;58929;47.490;19.090;2023-02-01T03:45:24;2.63;;;2.13;;
71202;SDS011;58929;47.490;19.090;2023-02-01T03:47:54;3.13;;;1.85;;
71202;SDS011;58929;47.490;19.090;2023-02-01T03:50:24;2.58;;;2.30;;
71202;SDS011;58929;47.490;19.090;2023-02-01T03:52:55;3.55;;;2.38;;
71202;SDS011;58929;47.490;19.090;2023-02-01T03:55:24;2.45;;;2.20;;
71202;SDS011;58929;47.490;19.090;2023-02-01T03:57:55;4.60;;;2.15;;
71202;SDS011;58929;47.490;19.090;2023-02-01T04:00:25;3.10;;;2.03;;
71202;SDS011;58929;47.490;19.090;2023-02-01T04:02:55;3.17;;;2.13;;
71202;SDS011;58929;47.490;19.090;2023-02-01T04:05:23;2.80;;;2.22;;
71202;SDS011;58929;47.490;19.090;2023-02-01T04:07:58;2.60;;;1.98;;
71202;SDS011;58929;47.490;19.090;2023-02-01T04:10:27;2.53;;;2.00;;
71202;SDS011;58929;47.490;19.090;2023-02-01T04:12:55;3.10;;;2.10;;
71202;SDS011;58929;47.490;19.090;2023-02-01T04:15:23;3.88;;;2.28;;
71202;SDS011;58929;47.490;19.090;2023-02-01T04:17:51;3.25;;;2.33;;
71202;SDS011;58929;47.490;19.090;2023-02-01T04:20:19;2.08;;;1.88;;
71202;SDS011;58929;47.490;19.090;2023-02-01T04:22:49;2.25;;;2.05;;
71202;SDS011;58929;47.490;19.090;2023-02-01T04:25:18;4.15;;;2.30;;
71202;SDS011;58929;47.490;19.090;2023-02-01T04:27:47;2.53;;;2.20;;
71202;SDS011;58929;47.490;19.090;2023-02-01T04:30:15;2.63;;;2.10;;
71202;SDS011;58929;47.490;19.090;2023-02-01T04:32:43;3.28;;;2.03;;
71202;SDS011;58929;47.490;19.090;2023-02-01T04:35:11;3.97;;;2.50;;
71202;SDS011;58929;47.490;19.090;2023-02-01T04:37:39;2.30;;;2.10;;
71202;SDS011;58929;47.490;19.090;2023-02-01T04:40:08;2.53;;;2.03;;
71202;SDS011;58929;47.490;19.090;2023-02-01T04:42:38;3.38;;;1.98;;
71202;SDS011;58929;47.490;19.090;2023-02-01T04:45:07;3.17;;;2.25;;
71202;SDS011;58929;47.490;19.090;2023-02-01T04:47:35;2.53;;;2.00;;
71202;SDS011;58929;47.490;19.090;2023-02-01T04:50:03;4.38;;;2.35;;
71202;SDS011;58929;47.490;19.090;2023-02-01T04:52:33;3.65;;;2.50;;
71202;SDS011;58929;47.490;19.090;2023-02-01T04:55:01;2.15;;;1.95;;
71202;SDS011;58929;47.490;19.090;2023-02-01T04:57:29;3.97;;;2.13;;
71202;SDS011;58929;47.490;19.090;2023-02-01T04:59:58;2.67;;;2.00;;
71202;SDS011;58929;47.490;19.090;2023-02-01T05:02:26;2.70;;;2.10;;
71202;SDS011;58929;47.490;19.090;2023-02-01T05:04:55;2.15;;;1.83;;
71202;SDS011;58929;47.490;19.090;2023-02-01T05:07:23;2.60;;;2.20;;
71202;SDS011;58929;47.490;19.090;2023-02-01T05:09:50;3.25;;;2.30;;
71202;SDS011;58929;47.490;19.090;2023-02-01T05:12:18;3.75;;;2.60;;
71202;SDS011;58929;47.490;19.090;2023-02-01T05:15:06;3.63;;;2.30;;
71202;SDS011;58929;47.490;19.090;2023-02-01T05:17:35;2.50;;;2.00;;
71202;SDS011;58929;47.490;19.090;2023-02-01T05:20:03;4.78;;;2.05;;
71202;SDS011;58929;47.490;19.090;2023-02-01T05:22:31;4.13;;;1.65;;
71202;SDS011;58929;47.490;19.090;2023-02-01T05:24:59;4.68;;;2.00;;
71202;SDS011;58929;47.490;19.090;2023-02-01T05:27:28;4.45;;;2.80;;
71202;SDS011;58929;47.490;19.090;2023-02-01T05:29:56;3.13;;;2.20;;
71202;SDS011;58929;47.490;19.090;2023-02-01T05:32:26;3.15;;;1.85;;
71202;SDS011;58929;47.490;19.090;2023-02-01T05:34:54;4.18;;;2.05;;
71202;SDS011;58929;47.490;19.090;2023-02-01T05:37:22;3.33;;;1.98;;
71202;SDS011;58929;47.490;19.090;2023-02-01T05:39:50;4.22;;;2.15;;
71202;SDS011;58929;47.490;19.090;2023-02-01T05:42:18;3.70;;;2.03;;
71202;SDS011;58929;47.490;19.090;2023-02-01T05:44:47;3.58;;;1.80;;
71202;SDS011;58929;47.490;19.090;2023-02-01T05:47:15;3.60;;;1.70;;
71202;SDS011;58929;47.490;19.090;2023-02-01T05:49:47;2.38;;;1.90;;
71202;SDS011;58929;47.490;19.090;2023-02-01T05:52:15;5.65;;;1.88;;
71202;SDS011;58929;47.490;19.090;2023-02-01T05:54:46;3.88;;;2.55;;
71202;SDS011;58929;47.490;19.090;2023-02-01T05:57:14;2.13;;;1.77;;
71202;SDS011;58929;47.490;19.090;2023-02-01T05:59:42;7.57;;;2.83;;
71202;SDS011;58929;47.490;19.090;2023-02-01T06:02:12;2.35;;;1.98;;
71202;SDS011;58929;47.490;19.090;2023-02-01T06:04:40;5.10;;;2.10;;
71202;SDS011;58929;47.490;19.090;2023-02-01T06:07:10;6.97;;;2.17;;
71202;SDS011;58929;47.490;19.090;2023-02-01T06:09:38;2.33;;;1.90;;
71202;SDS011;58929;47.490;19.090;2023-02-01T06:12:07;5.78;;;2.65;;
71202;SDS011;58929;47.490;19.090;2023-02-01T06:14:35;2.60;;;2.03;;
71202;SDS011;58929;47.490;19.090;2023-02-01T06:17:04;4.40;;;2.30;;
71202;SDS011;58929;47.490;19.090;2023-02-01T06:19:33;4.53;;;2.50;;
71202;SDS011;58929;47.490;19.090;2023-02-01T06:22:01;4.10;;;2.10;;
71202;SDS011;58929;47.490;19.090;2023-02-01T06:24:34;2.72;;;2.00;;
71202;SDS011;58929;47.490;19.090;2023-02-01T06:27:02;4.63;;;2.70;;
71202;SDS011;58929;47.490;19.090;2023-02-01T06:29:30;5.97;;;2.00;;
71202;SDS011;58929;47.490;19.090;2023-02-01T06:31:58;4.63;;;2.42;;
71202;SDS011;58929;47.490;19.090;2023-02-01T06:34:26;7.85;;;2.60;;
71202;SDS011;58929;47.490;19.090;2023-02-01T06:36:54;3.65;;;2.30;;
71202;SDS011;58929;47.490;19.090;2023-02-01T06:39:22;5.00;;;2.38;;
71202;SDS011;58929;47.490;19.090;2023-02-01T06:41:51;4.20;;;2.55;;
71202;SDS011;58929;47.490;19.090;2023-02-01T06:44:22;5.10;;;2.55;;
71202;SDS011;58929;47.490;19.090;2023-02-01T06:46:50;3.25;;;2.13;;
71202;SDS011;58929;47.490;19.090;2023-02-01T06:49:18;4.05;;;2.72;;
71202;SDS011;58929;47.490;19.090;2023-02-01T06:51:46;9.75;;;5.65;;
71202;SDS011;58929;47.490;19.090;2023-02-01T06:54:17;3.65;;;2.70;;
71202;SDS011;58929;47.490;19.090;2023-02-01T06:56:45;4.07;;;2.42;;
71202;SDS011;58929;47.490;19.090;2023-02-01T06:59:14;3.78;;;2.50;;
71202;SDS011;58929;47.490;19.090;2023-02-01T07:01:48;4.10;;;2.70;;
71202;SDS011;58929;47.490;19.090;2023-02-01T07:04:16;4.15;;;2.28;;
71202;SDS011;58929;47.490;19.090;2023-02-01T07:06:44;5.07;;;2.42;;
71202;SDS011;58929;47.490;19.090;2023-02-01T07:09:12;5.10;;;3.03;;
71202;SDS011;58929;47.490;19.090;2023-02-01T07:11:40;4.93;;;2.67;;
71202;SDS011;58929;47.490;19.090;2023-02-01T07:14:09;8.25;;;3.42;;
71202;SDS011;58929;47.490;19.090;2023-02-01T07:16:39;4.38;;;2.97;;
71202;SDS011;58929;47.490;19.090;2023-02-01T07:19:07;3.80;;;2.00;;
71202;SDS011;58929;47.490;19.090;2023-02-01T07:21:35;2.55;;;2.28;;
71202;SDS011;58929;47.490;19.090;2023-02-01T07:24:03;2.55;;;1.92;;
71202;SDS011;58929;47.490;19.090;2023-02-01T07:26:31;5.43;;;2.90;;
71202;SDS011;58929;47.490;19.090;2023-02-01T07:28:59;8.18;;;2.78;;
71202;SDS011;58929;47.490;19.090;2023-02-01T07:31:30;5.95;;;2.55;;
71202;SDS011;58929;47.490;19.090;2023-02-01T07:33:59;6.97;;;2.83;;
71202;SDS011;58929;47.490;19.090;2023-02-01T07:36:29;4.57;;;3.03;;
71202;SDS011;58929;47.490;19.090;2023-02-01T07:38:57;6.60;;;2.72;;
71202;SDS011;58929;47.490;19.090;2023-02-01T07:41:25;9.13;;;3.15;;
71202;SDS011;58929;47.490;19.090;2023-02-01T07:43:53;5.15;;;2.80;;
71202;SDS011;58929;47.490;19.090;2023-02-01T07:46:22;4.28;;;2.60;;
71202;SDS011;58929;47.490;19.090;2023-02-01T07:48:50;6.57;;;2.83;;
71202;SDS011;58929;47.490;19.090;2023-02-01T07:51:20;8.35;;;2.33;;
71202;SDS011;58929;47.490;19.090;2023-02-01T07:53:50;2.28;;;1.88;;
71202;SDS011;58929;47.490;19.090;2023-02-01T07:56:22;3.80;;;2.38;;
71202;SDS011;58929;47.490;19.090;2023-02-01T07:58:52;6.32;;;3.13;;
71202;SDS011;58929;47.490;19.090;2023-02-01T08:01:21;3.97;;;2.42;;
71202;SDS011;58929;47.490;19.090;2023-02-01T08:03:56;4.65;;;2.58;;
71202;SDS011;58929;47.490;19.090;2023-02-01T08:06:27;8.02;;;3.88;;
71202;SDS011;58929;47.490;19.090;2023-02-01T08:08:55;4.70;;;2.10;;
71202;SDS011;58929;47.490;19.090;2023-02-01T08:11:23;4.97;;;2.33;;
71202;SDS011;58929;47.490;19.090;2023-02-01T08:13:51;3.17;;;2.10;;
71202;SDS011;58929;47.490;19.090;2023-02-01T08:16:20;8.48;;;2.25;;
71202;SDS011;58929;47.490;19.090;2023-02-01T08:18:48;5.72;;;2.70;;
71202;SDS011;58929;47.490;19.090;2023-02-01T08:21:18;6.85;;;2.05;;
71202;SDS011;58929;47.490;19.090;2023-02-01T08:23:49;6.15;;;2.65;;
71202;SDS011;58929;47.490;19.090;2023-02-01T08:26:18;7.43;;;2.72;;
71202;SDS011;58929;47.490;19.090;2023-02-01T08:28:48;9.10;;;2.63;;
71202;SDS011;58929;47.490;19.090;2023-02-01T08:31:17;4.72;;;2.40;;
71202;SDS011;58929;47.490;19.090;2023-02-01T08:33:48;6.93;;;3.05;;
71202;SDS011;58929;47.490;19.090;2023-02-01T08:36:16;6.15;;;2.78;;
71202;SDS011;58929;47.490;19.090;2023-02-01T08:38:44;7.20;;;2.45;;
71202;SDS011;58929;47.490;19.090;2023-02-01T08:41:14;5.55;;;2.10;;
71202;SDS011;58929;47.490;19.090;2023-02-01T08:43:44;5.47;;;2.75;;
71202;SDS011;58929;47.490;19.090;2023-02-01T08:46:13;6.03;;;2.05;;
71202;SDS011;58929;47.490;19.090;2023-02-01T08:48:41;4.90;;;2.60;;
71202;SDS011;58929;47.490;19.090;2023-02-01T08:51:09;3.15;;;1.92;;
71202;SDS011;58929;47.490;19.090;2023-02-01T08:53:38;4.68;;;2.15;;
71202;SDS011;58929;47.490;19.090;2023-02-01T08:56:08;4.10;;;2.55;;
71202;SDS011;58929;47.490;19.090;2023-02-01T08:58:38;9.55;;;2.40;;
71202;SDS011;58929;47.490;19.090;2023-02-01T09:01:06;7.93;;;2.58;;
71202;SDS011;58929;47.490;19.090;2023-02-01T09:03:34;5.55;;;2.05;;
71202;SDS011;58929;47.490;19.090;2023-02-01T09:06:04;6.35;;;2.63;;
71202;SDS011;58929;47.490;19.090;2023-02-01T09:08:33;6.43;;;2.95;;
71202;SDS011;58929;47.490;19.090;2023-02-01T09:11:01;5.88;;;2.65;;
71202;SDS011;58929;47.490;19.090;2023-02-01T09:13:30;6.95;;;2.78;;
71202;SDS011;58929;47.490;19.090;2023-02-01T09:16:00;8.30;;;2.70;;
71202;SDS011;58929;47.490;19.090;2023-02-01T09:18:28;7.78;;;2.97;;
71202;SDS011;58929;47.490;19.090;2023-02-01T09:20:56;8.05;;;3.08;;
71202;SDS011;58929;47.490;19.090;2023-02-01T09:23:24;7.43;;;3.13;;
71202;SDS011;58929;47.490;19.090;2023-02-01T09:25:52;9.90;;;2.88;;
71202;SDS011;58929;47.490;19.090;2023-02-01T09:28:20;6.43;;;2.80;;
71202;SDS011;58929;47.490;19.090;2023-02-01T09:30:48;9.35;;;3.85;;
71202;SDS011;58929;47.490;19.090;2023-02-01T09:33:18;6.88;;;3.35;;
71202;SDS011;58929;47.490;19.090;2023-02-01T09:35:47;5.63;;;2.65;;
71202;SDS011;58929;47.490;19.090;2023-02-01T09:38:15;3.95;;;2.20;;
71202;SDS011;58929;47.490;19.090;2023-02-01T09:40:45;6.32;;;3.63;;
71202;SDS011;58929;47.490;19.090;2023-02-01T09:43:17;5.57;;;2.78;;
71202;SDS011;58929;47.490;19.090;2023-02-01T09:45:50;4.97;;;2.92;;
71202;SDS011;58929;47.490;19.090;2023-02-01T09:48:21;6.22;;;2.40;;
71202;SDS011;58929;47.490;19.090;2023-02-01T09:50:52;8.00;;;4.55;;
71202;SDS011;58929;47.490;19.090;2023-02-01T09:53:22;14.48;;;3.20;;
71202;SDS011;58929;47.490;19.090;2023-02-01T09:55:53;24.10;;;4.00;;
71202;SDS011;58929;47.490;19.090;2023-02-01T09:58:24;9.55;;;2.75;;
71202;SDS011;58929;47.490;19.090;2023-02-01T10:00:57;7.28;;;2.50;;
71202;SDS011;58929;47.490;19.090;2023-02-01T10:03:28;5.05;;;2.58;;
71202;SDS011;58929;47.490;19.090;2023-02-01T10:08:52;11.63;;;3.15;;
71202;SDS011;58929;47.490;19.090;2023-02-01T10:11:23;9.55;;;3.35;;
71202;SDS011;58929;47.490;19.090;2023-02-01T10:13:57;8.20;;;3.33;;
71202;SDS011;58929;47.490;19.090;2023-02-01T10:16:31;7.53;;;3.97;;
71202;SDS011;58929;47.490;19.090;2023-02-01T10:19:19;4.90;;;2.92;;
71202;SDS011;58929;47.490;19.090;2023-02-01T10:21:52;6.40;;;4.20;;
71202;SDS011;58929;47.490;19.090;2023-02-01T10:24:27;7.72;;;3.05;;
71202;SDS011;58929;47.490;19.090;2023-02-01T10:26:57;9.90;;;3.83;;
71202;SDS011;58929;47.490;19.090;2023-02-01T10:29:28;10.85;;;6.13;;
71202;SDS011;58929;47.490;19.090;2023-02-01T10:31:58;10.60;;;4.35;;
71202;SDS011;58929;47.490;19.090;2023-02-01T10:34:31;9.07;;;4.53;;
71202;SDS011;58929;47.490;19.090;2023-02-01T10:37:07;8.27;;;3.78;;
71202;SDS011;58929;47.490;19.090;2023-02-01T10:39:38;8.57;;;3.90;;
71202;SDS011;58929;47.490;19.090;2023-02-01T10:42:07;8.57;;;3.22;;
71202;SDS011;58929;47.490;19.090;2023-02-01T10:44:40;11.05;;;3.78;;
71202;SDS011;58929;47.490;19.090;2023-02-01T10:47:10;8.65;;;3.70;;
71202;SDS011;58929;47.490;19.090;2023-02-01T10:49:40;10.43;;;4.65;;
71202;SDS011;58929;47.490;19.090;2023-02-01T10:52:12;7.60;;;4.38;;
71202;SDS011;58929;47.490;19.090;2023-02-01T10:54:40;9.18;;;4.70;;
71202;SDS011;58929;47.490;19.090;2023-02-01T10:57:09;6.82;;;4.20;;
71202;SDS011;58929;47.490;19.090;2023-02-01T10:59:37;7.82;;;4.10;;
71202;SDS011;58929;47.490;19.090;2023-02-01T11:02:13;5.78;;;3.80;;
71202;SDS011;58929;47.490;19.090;2023-02-01T11:04:44;8.33;;;5.70;;
71202;SDS011;58929;47.490;19.090;2023-02-01T11:07:14;10.32;;;4.57;;
71202;SDS011;58929;47.490;19.090;2023-02-01T11:09:48;5.72;;;3.92;;
71202;SDS011;58929;47.490;19.090;2023-02-01T11:12:28;11.15;;;4.97;;
71202;SDS011;58929;47.490;19.090;2023-02-01T11:14:58;7.07;;;4.75;;
71202;SDS011;58929;47.490;19.090;2023-02-01T11:17:28;5.40;;;3.53;;
71202;SDS011;58929;47.490;19.090;2023-02-01T11:20:00;6.57;;;4.30;;
71202;SDS011;58929;47.490;19.090;2023-02-01T11:22:28;8.20;;;4.30;;
71202;SDS011;58929;47.490;19.090;2023-02-01T11:24:59;6.97;;;3.70;;
71202;SDS011;58929;47.490;19.090;2023-02-01T11:27:28;9.98;;;3.83;;
71202;SDS011;58929;47.490;19.090;2023-02-01T11:30:20;5.82;;;4.18;;
71202;SDS011;58929;47.490;19.090;2023-02-01T11:32:51;5.20;;;4.30;;
71202;SDS011;58929;47.490;19.090;2023-02-01T11:35:21;7.47;;;4.50;;
71202;SDS011;58929;47.490;19.090;2023-02-01T11:37:56;7.97;;;4.93;;
71202;SDS011;58929;47.490;19.090;2023-02-01T11:40:26;7.80;;;4.55;;
71202;SDS011;58929;47.490;19.090;2023-02-01T11:42:56;6.47;;;4.40;;
71202;SDS011;58929;47.490;19.090;2023-02-01T11:45:27;6.82;;;4.07;;
71202;SDS011;58929;47.490;19.090;2023-02-01T11:47:56;7.50;;;4.35;;
71202;SDS011;58929;47.490;19.090;2023-02-01T11:50:28;8.00;;;5.13;;
71202;SDS011;58929;47.490;19.090;2023-02-01T11:53:05;8.63;;;4.43;;
71202;SDS011;58929;47.490;19.090;2023-02-01T11:55:46;6.75;;;4.82;;
71202;SDS011;58929;47.490;19.090;2023-02-01T12:01:24;8.98;;;4.63;;
71202;SDS011;58929;47.490;19.090;2023-02-01T12:06:48;8.32;;;5.20;;
71202;SDS011;58929;47.490;19.090;2023-02-01T12:12:02;8.55;;;4.97;;
71202;SDS011;58929;47.490;19.090;2023-02-01T12:14:36;11.05;;;4.95;;
71202;SDS011;58929;47.490;19.090;2023-02-01T12:19:58;8.85;;;4.65;;
71202;SDS011;58929;47.490;19.090;2023-02-01T12:22:35;7.85;;;5.00;;
71202;SDS011;58929;47.490;19.090;2023-02-01T12:28:08;7.20;;;4.55;;
71202;SDS011;58929;47.490;19.090;2023-02-01T12:30:45;8.40;;;4.60;;
71202;SDS011;58929;47.490;19.090;2023-02-01T12:33:18;5.97;;;4.70;;
71202;SDS011;58929;47.490;19.090;2023-02-01T12:35:53;9.95;;;4.63;;
71202;SDS011;58929;47.490;19.090;2023-02-01T12:38:28;9.48;;;5.22;;
71202;SDS011;58929;47.490;19.090;2023-02-01T12:41:11;10.43;;;4.78;;
71202;SDS011;58929;47.490;19.090;2023-02-01T12:46:11;9.40;;;5.15;;
71202;SDS011;58929;47.490;19.090;2023-02-01T12:48:42;6.70;;;4.07;;
71202;SDS011;58929;47.490;19.090;2023-02-01T12:51:14;9.65;;;4.47;;
71202;SDS011;58929;47.490;19.090;2023-02-01T12:53:45;7.03;;;4.18;;
71202;SDS011;58929;47.490;19.090;2023-02-01T12:56:16;7.90;;;4.82;;
71202;SDS011;58929;47.490;19.090;2023-02-01T12:58:48;6.90;;;4.10;;
71202;SDS011;58929;47.490;19.090;2023-02-01T13:01:21;4.28;;;3.03;;
71202;SDS011;58929;47.490;19.090;2023-02-01T13:03:52;5.53;;;3.22;;
71202;SDS011;58929;47.490;19.090;2023-02-01T13:06:24;6.05;;;2.85;;
71202;SDS011;58929;47.490;19.090;2023-02-01T13:08:56;4.97;;;3.22;;
71202;SDS011;58929;47.490;19.090;2023-02-01T13:11:27;7.38;;;2.88;;
71202;SDS011;58929;47.490;19.090;2023-02-01T13:13:59;5.90;;;2.97;;
71202;SDS011;58929;47.490;19.090;2023-02-01T13:16:30;5.47;;;3.10;;
71202;SDS011;58929;47.490;19.090;2023-02-01T13:19:00;5.13;;;3.22;;
71202;SDS011;58929;47.490;19.090;2023-02-01T13:21:32;6.15;;;3.58;;
71202;SDS011;58929;47.490;19.090;2023-02-01T13:24:02;6.68;;;3.70;;
71202;SDS011;58929;47.490;19.090;2023-02-01T13:26:31;7.55;;;3.10;;
71202;SDS011;58929;47.490;19.090;2023-02-01T13:29:00;6.43;;;3.70;;
71202;SDS011;58929;47.490;19.090;2023-02-01T13:31:34;10.60;;;3.90;;
71202;SDS011;58929;47.490;19.090;2023-02-01T13:37:02;6.97;;;4.28;;
71202;SDS011;58929;47.490;19.090;2023-02-01T13:39:45;8.98;;;4.68;;
71202;SDS011;58929;47.490;19.090;2023-02-01T13:42:16;9.25;;;4.68;;
71202;SDS011;58929;47.490;19.090;2023-02-01T13:44:47;9.25;;;4.22;;
71202;SDS011;58929;47.490;19.090;2023-02-01T13:47:20;11.10;;;4.72;;
71202;SDS011;58929;47.490;19.090;2023-02-01T13:49:50;9.63;;;4.32;;
71202;SDS011;58929;47.490;19.090;2023-02-01T13:52:24;13.75;;;5.07;;
71202;SDS011;58929;47.490;19.090;2023-02-01T13:55:02;12.63;;;4.45;;
71202;SDS011;58929;47.490;19.090;2023-02-01T13:57:34;9.93;;;4.78;;
71202;SDS011;58929;47.490;19.090;2023-02-01T14:00:08;14.15;;;4.70;;
71202;SDS011;58929;47.490;19.090;2023-02-01T14:02:59;10.60;;;4.15;;
71202;SDS011;58929;47.490;19.090;2023-02-01T14:08:23;7.72;;;3.75;;
71202;SDS011;58929;47.490;19.090;2023-02-01T14:10:55;9.15;;;4.75;;
71202;SDS011;58929;47.490;19.090;2023-02-01T14:13:26;8.07;;;4.18;;
71202;SDS011;58929;47.490;19.090;2023-02-01T14:19:00;12.32;;;4.22;;
71202;SDS011;58929;47.490;19.090;2023-02-01T14:21:30;4.72;;;3.40;;
71202;SDS011;58929;47.490;19.090;2023-02-01T14:24:00;5.72;;;3.25;;
71202;SDS011;58929;47.490;19.090;2023-02-01T14:26:44;10.88;;;5.30;;
71202;SDS011;58929;47.490;19.090;2023-02-01T14:29:21;10.88;;;3.55;;
71202;SDS011;58929;47.490;19.090;2023-02-01T14:31:52;6.90;;;3.65;;
71202;SDS011;58929;47.490;19.090;2023-02-01T14:34:22;9.55;;;3.65;;
71202;SDS011;58929;47.490;19.090;2023-02-01T14:36:54;7.13;;;3.35;;
71202;SDS011;58929;47.490;19.090;2023-02-01T14:39:29;7.10;;;3.10;;
71202;SDS011;58929;47.490;19.090;2023-02-01T14:42:01;17.30;;;8.60;;
71202;SDS011;58929;47.490;19.090;2023-02-01T14:44:34;7.43;;;3.67;;
71202;SDS011;58929;47.490;19.090;2023-02-01T14:50:02;7.50;;;3.40;;
71202;SDS011;58929;47.490;19.090;2023-02-01T14:52:32;4.95;;;3.35;;
71202;SDS011;58929;47.490;19.090;2023-02-01T14:55:03;10.80;;;4.38;;
71202;SDS011;58929;47.490;19.090;2023-02-01T14:57:34;8.32;;;3.53;;
71202;SDS011;58929;47.490;19.090;2023-02-01T15:00:06;5.88;;;2.80;;
71202;SDS011;58929;47.490;19.090;2023-02-01T15:02:36;7.22;;;2.90;;
71202;SDS011;58929;47.490;19.090;2023-02-01T15:05:16;6.10;;;3.10;;
71202;SDS011;58929;47.490;19.090;2023-02-01T15:07:50;4.63;;;2.13;;
71202;SDS011;58929;47.490;19.090;2023-02-01T15:10:18;4.82;;;2.80;;
71202;SDS011;58929;47.490;19.090;2023-02-01T15:12:56;6.05;;;2.78;;
71202;SDS011;58929;47.490;19.090;2023-02-01T15:15:24;4.05;;;2.22;;
71202;SDS011;58929;47.490;19.090;2023-02-01T15:17:53;5.60;;;1.98;;
71202;SDS011;58929;47.490;19.090;2023-02-01T15:20:22;3.00;;;1.73;;
71202;SDS011;58929;47.490;19.090;2023-02-01T15:22:53;3.58;;;2.10;;
71202;SDS011;58929;47.490;19.090;2023-02-01T15:25:26;6.03;;;1.90;;
71202;SDS011;58929;47.490;19.090;2023-02-01T15:27:55;3.95;;;2.30;;
71202;SDS011;58929;47.490;19.090;2023-02-01T15:30:25;4.53;;;1.70;;